createdAt,value
2018-06-17T00:00:03.872Z,56.77
2018-06-17T00:01:03.895Z,56.77
2018-06-17T00:02:03.917Z,56.96
2018-06-17T00:03:03.940Z,56.68
2018-06-17T00:04:03.965Z,57.06
2018-06-17T00:05:03.991Z,56.68
2018-06-17T00:06:04.011Z,56.77
2018-06-17T00:07:04.034Z,57.06
2018-06-17T00:08:04.059Z,57.16
2018-06-17T00:09:04.085Z,56.96
2018-06-17T00:10:04.104Z,56.77
2018-06-17T00:11:04.131Z,57.06
2018-06-17T00:12:04.157Z,57.16
2018-06-17T00:13:04.175Z,57.16
2018-06-17T00:14:04.198Z,56.96
2018-06-17T00:15:04.222Z,56.96
2018-06-17T00:16:04.246Z,57.06
2018-06-17T00:17:04.270Z,56.96
2018-06-17T00:18:04.296Z,57.54
2018-06-17T00:19:04.316Z,57.26
2018-06-17T00:20:04.339Z,57.54
2018-06-17T00:21:04.363Z,57.45
2018-06-17T00:22:04.389Z,57.64
2018-06-17T00:23:04.411Z,57.45
2018-06-17T00:24:04.436Z,57.64
2018-06-17T00:25:04.459Z,57.45
2018-06-17T00:26:04.480Z,57.45
2018-06-17T00:27:04.505Z,57.84
2018-06-17T00:28:04.526Z,57.26
2018-06-17T00:29:04.548Z,57.54
2018-06-17T00:30:04.574Z,57.64
2018-06-17T00:31:04.598Z,57.64
2018-06-17T00:32:04.622Z,57.26
2018-06-17T00:33:04.644Z,57.16
2018-06-17T00:34:04.668Z,57.26
2018-06-17T00:35:04.689Z,57.54
2018-06-17T00:36:04.714Z,57.54
2018-06-17T00:37:04.737Z,57.16
2018-06-17T00:38:04.760Z,57.54
2018-06-17T00:39:04.788Z,57.45
2018-06-17T00:40:04.810Z,57.35
2018-06-17T00:41:04.833Z,57.26
2018-06-17T00:42:04.853Z,57.35
2018-06-17T00:43:04.876Z,57.45
2018-06-17T00:44:04.904Z,57.45
2018-06-17T00:45:04.924Z,57.16
2018-06-17T00:46:04.948Z,57.45
2018-06-17T00:47:04.970Z,57.45
2018-06-17T00:48:04.994Z,57.16
2018-06-17T00:49:05.020Z,57.16
2018-06-17T00:50:05.041Z,57.06
2018-06-17T00:51:05.065Z,57.06
2018-06-17T00:52:05.088Z,57.26
2018-06-17T00:53:05.111Z,56.77
2018-06-17T00:54:05.135Z,56.77
2018-06-17T00:55:05.159Z,56.96
2018-06-17T00:56:05.197Z,56.87
2018-06-17T00:57:05.206Z,56.77
2018-06-17T00:58:05.228Z,56.68
2018-06-17T00:59:05.259Z,56.77
2018-06-17T01:00:05.279Z,56.87
2018-06-17T01:01:05.300Z,56.87
2018-06-17T01:02:05.322Z,56.87
2018-06-17T01:03:05.345Z,56.87
2018-06-17T01:04:05.368Z,56.87
2018-06-17T01:05:05.392Z,56.48
2018-06-17T01:06:05.415Z,56.20
2018-06-17T01:07:05.439Z,56.87
2018-06-17T01:08:05.463Z,56.58
2018-06-17T01:09:05.489Z,56.39
2018-06-17T01:10:05.514Z,56.48
2018-06-17T01:11:05.531Z,56.39
2018-06-17T01:12:05.554Z,56.68
2018-06-17T01:13:05.579Z,56.77
2018-06-17T01:14:05.604Z,56.29
2018-06-17T01:15:05.625Z,56.58
2018-06-17T01:16:05.652Z,56.58
2018-06-17T01:17:05.674Z,56.29
2018-06-17T01:18:05.694Z,56.58
2018-06-17T01:19:05.718Z,56.00
2018-06-17T01:20:05.741Z,55.90
2018-06-17T01:21:05.766Z,56.00
2018-06-17T01:22:05.792Z,56.10
2018-06-17T01:23:05.812Z,56.10
2018-06-17T01:24:05.835Z,56.00
2018-06-17T01:25:05.860Z,56.10
2018-06-17T01:26:05.883Z,55.90
2018-06-17T01:27:05.907Z,55.90
2018-06-17T01:28:05.929Z,55.81
2018-06-17T01:29:05.954Z,55.62
2018-06-17T01:30:05.976Z,55.90
2018-06-17T01:31:05.998Z,56.10
2018-06-17T01:32:06.022Z,56.10
2018-06-17T01:33:06.044Z,56.00
2018-06-17T01:34:06.068Z,55.71
2018-06-17T01:35:06.091Z,55.90
2018-06-17T01:36:06.115Z,55.52
2018-06-17T01:37:06.138Z,56.00
2018-06-17T01:38:06.160Z,55.62
2018-06-17T01:39:06.185Z,55.71
2018-06-17T01:40:06.213Z,55.62
2018-06-17T01:41:06.238Z,55.71
2018-06-17T01:42:06.258Z,55.90
2018-06-17T01:43:06.277Z,55.62
2018-06-17T01:44:06.301Z,55.71
2018-06-17T01:45:06.326Z,56.10
2018-06-17T01:46:06.348Z,56.10
2018-06-17T01:47:06.371Z,56.00
2018-06-17T01:48:06.403Z,56.10
2018-06-17T01:49:06.418Z,56.10
2018-06-17T01:50:06.440Z,56.10
2018-06-17T01:51:06.465Z,56.00
2018-06-17T01:52:06.487Z,55.90
2018-06-17T01:53:06.514Z,55.81
2018-06-17T01:54:06.535Z,55.81
2018-06-17T01:55:06.556Z,56.10
2018-06-17T01:56:06.581Z,56.00
2018-06-17T01:57:06.604Z,56.10
2018-06-17T01:58:06.630Z,56.10
2018-06-17T01:59:06.651Z,55.81
2018-06-17T02:00:06.679Z,56.10
2018-06-17T02:01:06.700Z,55.81
2018-06-17T02:02:06.720Z,56.00
2018-06-17T02:03:06.744Z,55.81
2018-06-17T02:04:06.775Z,56.00
2018-06-17T02:05:06.789Z,55.78
2018-06-17T02:06:06.815Z,56.10
2018-06-17T02:07:06.837Z,56.20
2018-06-17T02:08:06.861Z,55.90
2018-06-17T02:09:06.884Z,56.10
2018-06-17T02:10:06.906Z,56.10
2018-06-17T02:11:06.928Z,56.00
2018-06-17T02:12:06.955Z,56.10
2018-06-17T02:13:06.976Z,56.20
2018-06-17T02:14:06.999Z,56.00
2018-06-17T02:15:07.023Z,55.62
2018-06-17T02:16:07.046Z,55.62
2018-06-17T02:17:07.073Z,55.88
2018-06-17T02:18:07.100Z,55.68
2018-06-17T02:19:07.120Z,55.62
2018-06-17T02:20:07.139Z,55.71
2018-06-17T02:21:07.162Z,55.90
2018-06-17T02:22:07.185Z,55.78
2018-06-17T02:23:07.209Z,55.59
2018-06-17T02:24:07.233Z,55.62
2018-06-17T02:25:07.256Z,55.59
2018-06-17T02:26:07.278Z,55.59
2018-06-17T02:27:07.302Z,55.78
2018-06-17T02:28:07.325Z,55.59
2018-06-17T02:29:07.349Z,55.81
2018-06-17T02:30:07.374Z,55.90
2018-06-17T02:31:07.395Z,55.68
2018-06-17T02:32:07.419Z,55.49
2018-06-17T02:33:07.448Z,55.81
2018-06-17T02:34:07.464Z,55.98
2018-06-17T02:35:07.488Z,55.78
2018-06-17T02:36:07.513Z,55.78
2018-06-17T02:37:07.534Z,55.59
2018-06-17T02:38:07.557Z,55.30
2018-06-17T02:39:07.583Z,55.71
2018-06-17T02:40:07.605Z,55.88
2018-06-17T02:41:07.633Z,55.59
2018-06-17T02:42:07.651Z,55.81
2018-06-17T02:43:07.676Z,55.59
2018-06-17T02:44:07.701Z,55.98
2018-06-17T02:45:07.721Z,55.78
2018-06-17T02:46:07.745Z,55.68
2018-06-17T02:47:07.767Z,55.78
2018-06-17T02:48:07.792Z,55.81
2018-06-17T02:49:07.814Z,55.40
2018-06-17T02:50:07.835Z,55.59
2018-06-17T02:51:07.866Z,55.59
2018-06-17T02:52:07.883Z,55.59
2018-06-17T02:53:07.907Z,55.42
2018-06-17T02:54:07.933Z,55.20
2018-06-17T02:55:07.952Z,55.30
2018-06-17T02:56:07.978Z,55.23
2018-06-17T02:57:08.001Z,55.20
2018-06-17T02:58:08.022Z,55.20
2018-06-17T02:59:08.047Z,55.20
2018-06-17T03:00:08.072Z,55.49
2018-06-17T03:01:08.102Z,55.52
2018-06-17T03:02:08.114Z,55.10
2018-06-17T03:03:08.142Z,54.84
2018-06-17T03:04:08.163Z,55.01
2018-06-17T03:05:08.185Z,55.13
2018-06-17T03:06:08.208Z,55.04
2018-06-17T03:07:08.232Z,55.13
2018-06-17T03:08:08.254Z,55.10
2018-06-17T03:09:08.281Z,54.91
2018-06-17T03:10:08.301Z,55.01
2018-06-17T03:11:08.324Z,54.91
2018-06-17T03:12:08.347Z,55.10
2018-06-17T03:13:08.371Z,54.82
2018-06-17T03:14:08.393Z,54.84
2018-06-17T03:15:08.420Z,54.84
2018-06-17T03:16:08.438Z,54.94
2018-06-17T03:17:08.464Z,55.04
2018-06-17T03:18:08.490Z,54.94
2018-06-17T03:19:08.513Z,54.55
2018-06-17T03:20:08.533Z,54.36
2018-06-17T03:21:08.558Z,54.07
2018-06-17T03:22:08.576Z,54.36
2018-06-17T03:23:08.604Z,54.27
2018-06-17T03:24:08.626Z,53.88
2018-06-17T03:25:08.650Z,53.97
2018-06-17T03:26:08.672Z,53.78
2018-06-17T03:27:08.696Z,53.39
2018-06-17T03:28:08.722Z,53.69
2018-06-17T03:29:08.743Z,53.69
2018-06-17T03:30:08.764Z,53.71
2018-06-17T03:31:08.795Z,53.13
2018-06-17T03:32:08.814Z,53.03
2018-06-17T03:33:08.842Z,52.84
2018-06-17T03:34:08.861Z,52.65
2018-06-17T03:35:08.882Z,52.26
2018-06-17T03:36:08.902Z,52.48
2018-06-17T03:37:08.930Z,52.17
2018-06-17T03:38:08.951Z,52.36
2018-06-17T03:39:08.975Z,52.29
2018-06-17T03:40:09.001Z,52.29
2018-06-17T03:41:09.022Z,52.07
2018-06-17T03:42:09.048Z,52.09
2018-06-17T03:43:09.069Z,52.19
2018-06-17T03:44:09.094Z,51.97
2018-06-17T03:45:09.117Z,51.78
2018-06-17T03:46:09.141Z,52.17
2018-06-17T03:47:09.172Z,51.78
2018-06-17T03:48:09.188Z,52.36
2018-06-17T03:49:09.212Z,52.36
2018-06-17T03:50:09.235Z,51.78
2018-06-17T03:51:09.258Z,51.39
2018-06-17T03:52:09.283Z,51.51
2018-06-17T03:53:09.305Z,52.00
2018-06-17T03:54:09.329Z,51.32
2018-06-17T03:55:09.352Z,51.61
2018-06-17T03:56:09.381Z,50.93
2018-06-17T03:57:09.401Z,50.84
2018-06-17T03:58:09.423Z,50.28
2018-06-17T03:59:09.448Z,49.70
2018-06-17T04:00:09.471Z,48.76
2018-06-17T04:01:09.495Z,48.57
2018-06-17T04:02:09.518Z,47.62
2018-06-17T04:03:09.542Z,48.11
2018-06-17T04:04:09.604Z,46.97
2018-06-17T04:05:09.590Z,47.16
2018-06-17T04:06:09.619Z,46.51
2018-06-17T04:07:09.638Z,46.48
2018-06-17T04:08:09.662Z,45.92
2018-06-17T04:09:09.690Z,45.83
2018-06-17T04:10:09.709Z,45.64
2018-06-17T04:11:09.733Z,46.48
2018-06-17T04:12:09.762Z,46.58
2018-06-17T04:13:09.785Z,47.06
2018-06-17T04:14:09.807Z,47.26
2018-06-17T04:15:09.836Z,47.14
2018-06-17T04:16:09.856Z,47.91
2018-06-17T04:17:09.878Z,48.11
2018-06-17T04:18:09.907Z,47.89
2018-06-17T04:19:09.925Z,48.37
2018-06-17T04:20:09.954Z,48.37
2018-06-17T04:21:09.978Z,48.57
2018-06-17T04:22:09.999Z,48.76
2018-06-17T04:23:10.024Z,49.24
2018-06-17T04:24:10.048Z,49.70
2018-06-17T04:25:10.073Z,49.51
2018-06-17T04:26:10.097Z,49.51
2018-06-17T04:27:10.119Z,49.51
2018-06-17T04:28:10.144Z,49.70
2018-06-17T04:29:10.169Z,49.51
2018-06-17T04:30:10.192Z,50.09
2018-06-17T04:31:10.217Z,49.99
2018-06-17T04:32:10.241Z,49.99
2018-06-17T04:33:10.265Z,49.90
2018-06-17T04:34:10.289Z,49.87
2018-06-17T04:35:10.313Z,50.57
2018-06-17T04:36:10.338Z,50.57
2018-06-17T04:37:10.358Z,50.26
2018-06-17T04:38:10.385Z,50.35
2018-06-17T04:39:10.409Z,50.16
2018-06-17T04:40:10.434Z,50.28
2018-06-17T04:41:10.457Z,50.35
2018-06-17T04:42:10.479Z,50.35
2018-06-17T04:43:10.504Z,50.45
2018-06-17T04:44:10.539Z,50.26
2018-06-17T04:45:10.556Z,50.84
2018-06-17T04:46:10.575Z,50.26
2018-06-17T04:47:10.601Z,50.74
2018-06-17T04:48:10.624Z,50.16
2018-06-17T04:49:10.652Z,50.84
2018-06-17T04:50:10.673Z,50.74
2018-06-17T04:51:10.696Z,50.55
2018-06-17T04:52:10.723Z,50.45
2018-06-17T04:53:10.745Z,50.65
2018-06-17T04:54:10.771Z,50.65
2018-06-17T04:55:10.800Z,50.55
2018-06-17T04:56:10.817Z,50.35
2018-06-17T04:57:10.839Z,50.55
2018-06-17T04:58:10.870Z,50.45
2018-06-17T04:59:10.886Z,50.35
2018-06-17T05:00:10.911Z,50.35
2018-06-17T05:01:10.943Z,50.35
2018-06-17T05:02:10.956Z,50.26
2018-06-17T05:03:10.982Z,50.45
2018-06-17T05:04:11.012Z,50.26
2018-06-17T05:05:11.030Z,50.07
2018-06-17T05:06:11.053Z,50.26
2018-06-17T05:07:11.078Z,50.35
2018-06-17T05:08:11.103Z,50.65
2018-06-17T05:09:11.128Z,50.07
2018-06-17T05:10:11.149Z,49.58
2018-06-17T05:11:11.173Z,49.80
2018-06-17T05:12:11.199Z,49.12
2018-06-17T05:13:11.220Z,48.74
2018-06-17T05:14:11.243Z,48.83
2018-06-17T05:15:11.270Z,48.37
2018-06-17T05:16:11.296Z,48.37
2018-06-17T05:17:11.342Z,48.57
2018-06-17T05:18:11.339Z,48.37
2018-06-17T05:19:11.367Z,48.37
2018-06-17T05:20:11.389Z,48.47
2018-06-17T05:21:11.417Z,47.79
2018-06-17T05:22:11.437Z,47.99
2018-06-17T05:23:11.460Z,47.79
2018-06-17T05:24:11.484Z,48.27
2018-06-17T05:25:11.511Z,48.08
2018-06-17T05:26:11.534Z,47.14
2018-06-17T05:27:11.557Z,46.56
2018-06-17T05:28:11.582Z,46.67
2018-06-17T05:29:11.606Z,46.29
2018-06-17T05:30:11.631Z,46.09
2018-06-17T05:31:11.654Z,46.00
2018-06-17T05:32:11.681Z,45.90
2018-06-17T05:33:11.705Z,45.61
2018-06-17T05:34:11.729Z,45.15
2018-06-17T05:35:11.753Z,44.98
2018-06-17T05:36:11.777Z,44.30
2018-06-17T05:37:11.803Z,44.49
2018-06-17T05:38:11.826Z,44.37
2018-06-17T05:39:11.851Z,44.57
2018-06-17T05:40:11.879Z,44.76
2018-06-17T05:41:11.901Z,45.05
2018-06-17T05:42:11.926Z,45.15
2018-06-17T05:43:11.952Z,45.13
2018-06-17T05:44:11.976Z,45.51
2018-06-17T05:45:12.005Z,45.42
2018-06-17T05:46:12.028Z,46.00
2018-06-17T05:47:12.050Z,45.90
2018-06-17T05:48:12.075Z,46.09
2018-06-17T05:49:12.101Z,46.29
2018-06-17T05:50:12.124Z,46.26
2018-06-17T05:51:12.150Z,46.66
2018-06-17T05:52:12.175Z,46.46
2018-06-17T05:53:12.199Z,46.75
2018-06-17T05:54:12.221Z,46.66
2018-06-17T05:55:12.248Z,46.46
2018-06-17T05:56:12.273Z,46.17
2018-06-17T05:57:12.299Z,46.66
2018-06-17T05:58:12.322Z,46.46
2018-06-17T05:59:12.345Z,47.14
2018-06-17T06:00:12.374Z,47.21
2018-06-17T06:01:12.395Z,47.11
2018-06-17T06:02:12.419Z,46.83
2018-06-17T06:03:12.445Z,46.83
2018-06-17T06:04:12.469Z,47.02
2018-06-17T06:05:12.496Z,47.11
2018-06-17T06:06:12.517Z,47.21
2018-06-17T06:07:12.544Z,47.11
2018-06-17T06:08:12.566Z,47.41
2018-06-17T06:09:12.591Z,47.11
2018-06-17T06:10:12.618Z,47.02
2018-06-17T06:11:12.648Z,46.94
2018-06-17T06:12:12.669Z,47.11
2018-06-17T06:13:12.690Z,46.94
2018-06-17T06:14:12.712Z,46.66
2018-06-17T06:15:12.743Z,46.66
2018-06-17T06:16:12.762Z,46.46
2018-06-17T06:17:12.788Z,46.56
2018-06-17T06:18:12.816Z,46.56
2018-06-17T06:19:12.843Z,46.56
2018-06-17T06:20:12.858Z,46.56
2018-06-17T06:21:12.885Z,46.66
2018-06-17T06:22:12.909Z,46.66
2018-06-17T06:23:12.937Z,46.46
2018-06-17T06:24:12.958Z,46.66
2018-06-17T06:25:12.983Z,46.46
2018-06-17T06:26:13.006Z,46.46
2018-06-17T06:27:13.032Z,46.66
2018-06-17T06:28:13.057Z,46.56
2018-06-17T06:29:13.082Z,46.56
2018-06-17T06:30:13.105Z,46.46
2018-06-17T06:31:13.135Z,46.46
2018-06-17T06:32:13.153Z,46.26
2018-06-17T06:33:13.180Z,46.39
2018-06-17T06:34:13.209Z,45.90
2018-06-17T06:35:13.227Z,45.71
2018-06-17T06:36:13.252Z,45.32
2018-06-17T06:37:13.312Z,45.32
2018-06-17T06:38:13.304Z,45.22
2018-06-17T06:39:13.325Z,45.15
2018-06-17T06:40:13.353Z,44.76
2018-06-17T06:41:13.375Z,44.47
2018-06-17T06:42:13.401Z,44.27
2018-06-17T06:43:13.428Z,44.68
2018-06-17T06:44:13.447Z,44.01
2018-06-17T06:45:13.477Z,44.01
2018-06-17T06:46:13.500Z,43.91
2018-06-17T06:47:13.528Z,43.82
2018-06-17T06:48:13.549Z,43.16
2018-06-17T06:49:13.576Z,43.26
2018-06-17T06:50:13.600Z,42.86
2018-06-17T06:51:13.623Z,42.77
2018-06-17T06:52:13.649Z,43.06
2018-06-17T06:53:13.675Z,42.77
2018-06-17T06:54:13.698Z,42.77
2018-06-17T06:55:13.724Z,42.67
2018-06-17T06:56:13.751Z,42.60
2018-06-17T06:57:13.778Z,41.82
2018-06-17T06:58:13.799Z,42.50
2018-06-17T06:59:13.826Z,41.72
2018-06-17T07:00:13.852Z,42.11
2018-06-17T07:01:13.875Z,42.11
2018-06-17T07:02:13.901Z,42.60
2018-06-17T07:03:13.927Z,41.92
2018-06-17T07:04:13.951Z,42.79
2018-06-17T07:05:13.978Z,42.60
2018-06-17T07:06:14.012Z,42.21
2018-06-17T07:07:14.029Z,42.60
2018-06-17T07:08:14.053Z,42.50
2018-06-17T07:09:14.078Z,42.30
2018-06-17T07:10:14.105Z,41.92
2018-06-17T07:11:14.130Z,42.79
2018-06-17T07:12:14.154Z,42.02
2018-06-17T07:13:14.182Z,42.02
2018-06-17T07:14:14.204Z,42.69
2018-06-17T07:15:14.230Z,42.69
2018-06-17T07:16:14.256Z,42.60
2018-06-17T07:17:14.282Z,42.21
2018-06-17T07:18:14.304Z,42.69
2018-06-17T07:19:14.332Z,42.11
2018-06-17T07:20:14.359Z,42.30
2018-06-17T07:21:14.386Z,42.38
2018-06-17T07:22:14.409Z,42.02
2018-06-17T07:23:14.438Z,42.40
2018-06-17T07:24:14.460Z,42.21
2018-06-17T07:25:14.490Z,42.60
2018-06-17T07:26:14.511Z,42.40
2018-06-17T07:27:14.540Z,42.50
2018-06-17T07:28:14.562Z,42.79
2018-06-17T07:29:14.590Z,42.79
2018-06-17T07:30:14.613Z,42.02
2018-06-17T07:31:14.643Z,42.02
2018-06-17T07:32:14.664Z,41.92
2018-06-17T07:33:14.690Z,42.11
2018-06-17T07:34:14.718Z,41.72
2018-06-17T07:35:14.739Z,42.02
2018-06-17T07:36:14.767Z,41.92
2018-06-17T07:37:14.796Z,42.02
2018-06-17T07:38:14.817Z,41.72
2018-06-17T07:39:14.844Z,41.72
2018-06-17T07:40:14.873Z,41.64
2018-06-17T07:41:14.895Z,41.45
2018-06-17T07:42:14.920Z,41.45
2018-06-17T07:43:14.945Z,41.45
2018-06-17T07:44:14.971Z,41.64
2018-06-17T07:45:14.998Z,41.16
2018-06-17T07:46:15.024Z,41.26
2018-06-17T07:47:15.048Z,41.06
2018-06-17T07:48:15.081Z,41.06
2018-06-17T07:49:15.101Z,41.06
2018-06-17T07:50:15.127Z,41.06
2018-06-17T07:51:15.156Z,40.97
2018-06-17T07:52:15.174Z,41.36
2018-06-17T07:53:15.204Z,41.45
2018-06-17T07:54:15.231Z,41.43
2018-06-17T07:55:15.254Z,41.33
2018-06-17T07:56:15.279Z,41.53
2018-06-17T07:57:15.306Z,41.63
2018-06-17T07:58:15.326Z,41.43
2018-06-17T07:59:15.361Z,42.02
2018-06-17T08:00:15.382Z,41.72
2018-06-17T08:01:15.408Z,42.11
2018-06-17T08:02:15.434Z,41.72
2018-06-17T08:03:15.459Z,41.53
2018-06-17T08:04:15.485Z,41.92
2018-06-17T08:05:15.514Z,41.92
2018-06-17T08:06:15.541Z,41.99
2018-06-17T08:07:15.568Z,41.89
2018-06-17T08:08:15.591Z,41.99
2018-06-17T08:09:15.614Z,41.80
2018-06-17T08:10:15.638Z,41.99
2018-06-17T08:11:15.664Z,41.89
2018-06-17T08:12:15.690Z,42.09
2018-06-17T08:13:15.715Z,41.89
2018-06-17T08:14:15.741Z,41.89
2018-06-17T08:15:15.767Z,41.70
2018-06-17T08:16:15.792Z,41.89
2018-06-17T08:17:15.817Z,41.41
2018-06-17T08:18:15.843Z,41.51
2018-06-17T08:19:15.868Z,41.51
2018-06-17T08:20:15.957Z,41.41
2018-06-17T08:21:15.920Z,41.41
2018-06-17T08:22:15.947Z,40.73
2018-06-17T08:23:15.971Z,40.73
2018-06-17T08:24:15.996Z,40.92
2018-06-17T08:25:16.023Z,41.02
2018-06-17T08:26:16.047Z,41.02
2018-06-17T08:27:16.078Z,40.73
2018-06-17T08:28:16.099Z,40.83
2018-06-17T08:29:16.125Z,40.92
2018-06-17T08:30:16.149Z,40.73
2018-06-17T08:31:16.176Z,40.83
2018-06-17T08:32:16.200Z,40.83
2018-06-17T08:33:16.225Z,40.92
2018-06-17T08:34:16.252Z,41.02
2018-06-17T08:35:16.278Z,41.12
2018-06-17T08:36:16.311Z,40.92
2018-06-17T08:37:16.328Z,40.92
2018-06-17T08:38:16.353Z,41.00
2018-06-17T08:39:16.380Z,40.73
2018-06-17T08:40:16.414Z,41.02
2018-06-17T08:41:16.432Z,40.83
2018-06-17T08:42:16.465Z,40.73
2018-06-17T08:43:16.482Z,40.83
2018-06-17T08:44:16.505Z,40.64
2018-06-17T08:45:16.532Z,40.64
2018-06-17T08:46:16.560Z,40.34
2018-06-17T08:47:16.583Z,40.15
2018-06-17T08:48:16.607Z,40.34
2018-06-17T08:49:16.633Z,39.95
2018-06-17T08:50:16.658Z,39.95
2018-06-17T08:51:16.684Z,39.86
2018-06-17T08:52:16.711Z,40.34
2018-06-17T08:53:16.737Z,40.34
2018-06-17T08:54:16.813Z,40.25
2018-06-17T08:55:16.785Z,40.34
2018-06-17T08:56:16.812Z,40.54
2018-06-17T08:57:16.835Z,40.25
2018-06-17T08:58:16.861Z,40.15
2018-06-17T08:59:16.889Z,40.34
2018-06-17T09:00:16.987Z,40.44
2018-06-17T09:01:16.940Z,40.34
2018-06-17T09:02:16.963Z,40.44
2018-06-17T09:03:16.990Z,40.25
2018-06-17T09:04:17.027Z,40.15
2018-06-17T09:05:17.040Z,40.05
2018-06-17T09:06:17.066Z,40.05
2018-06-17T09:07:17.096Z,39.67
2018-06-17T09:08:17.119Z,40.05
2018-06-17T09:09:17.143Z,40.15
2018-06-17T09:10:17.170Z,40.15
2018-06-17T09:11:17.195Z,39.95
2018-06-17T09:12:17.265Z,40.05
2018-06-17T09:13:17.245Z,40.15
2018-06-17T09:14:17.271Z,40.15
2018-06-17T09:15:17.295Z,39.95
2018-06-17T09:16:17.324Z,40.34
2018-06-17T09:17:17.346Z,40.44
2018-06-17T09:18:17.373Z,40.44
2018-06-17T09:19:17.455Z,40.33
2018-06-17T09:20:17.424Z,40.33
2018-06-17T09:21:17.452Z,39.94
2018-06-17T09:22:17.472Z,40.03
2018-06-17T09:23:17.500Z,39.94
2018-06-17T09:24:17.529Z,39.94
2018-06-17T09:25:17.582Z,40.13
2018-06-17T09:26:17.577Z,40.23
2018-06-17T09:27:17.605Z,40.13
2018-06-17T09:28:17.627Z,40.33
2018-06-17T09:29:17.652Z,40.44
2018-06-17T09:30:17.676Z,40.34
2018-06-17T09:31:17.705Z,40.33
2018-06-17T09:32:17.789Z,40.34
2018-06-17T09:33:17.755Z,40.34
2018-06-17T09:34:17.778Z,40.25
2018-06-17T09:35:17.805Z,40.25
2018-06-17T09:36:17.830Z,40.25
2018-06-17T09:37:17.856Z,39.95
2018-06-17T09:38:17.881Z,40.54
2018-06-17T09:39:17.906Z,40.33
2018-06-17T09:40:17.932Z,40.15
2018-06-17T09:41:17.962Z,40.15
2018-06-17T09:42:17.982Z,39.95
2018-06-17T09:43:18.008Z,40.34
2018-06-17T09:44:18.073Z,39.95
2018-06-17T09:45:18.060Z,40.05
2018-06-17T09:46:18.086Z,39.95
2018-06-17T09:47:18.110Z,39.76
2018-06-17T09:48:18.135Z,40.33
2018-06-17T09:49:18.162Z,40.34
2018-06-17T09:50:18.185Z,39.94
2018-06-17T09:51:18.211Z,39.95
2018-06-17T09:52:18.237Z,40.25
2018-06-17T09:53:18.266Z,40.15
2018-06-17T09:54:18.287Z,40.03
2018-06-17T09:55:18.314Z,40.23
2018-06-17T09:56:18.340Z,40.33
2018-06-17T09:57:18.365Z,40.23
2018-06-17T09:58:18.393Z,40.71
2018-06-17T09:59:18.414Z,40.42
2018-06-17T10:00:18.441Z,40.81
2018-06-17T10:01:18.466Z,40.52
2018-06-17T10:02:18.493Z,40.61
2018-06-17T10:03:18.519Z,40.52
2018-06-17T10:04:18.545Z,40.61
2018-06-17T10:05:18.572Z,40.61
2018-06-17T10:06:18.597Z,40.61
2018-06-17T10:07:18.618Z,40.61
2018-06-17T10:08:18.646Z,40.71
2018-06-17T10:09:18.670Z,40.33
2018-06-17T10:10:18.692Z,40.71
2018-06-17T10:11:18.720Z,40.81
2018-06-17T10:12:18.745Z,40.33
2018-06-17T10:13:18.768Z,40.13
2018-06-17T10:14:18.793Z,40.13
2018-06-17T10:15:18.825Z,40.23
2018-06-17T10:16:18.851Z,40.13
2018-06-17T10:17:18.873Z,40.33
2018-06-17T10:18:18.899Z,40.33
2018-06-17T10:19:18.924Z,40.33
2018-06-17T10:20:18.948Z,40.42
2018-06-17T10:21:18.974Z,40.33
2018-06-17T10:22:18.998Z,39.74
2018-06-17T10:23:19.023Z,40.33
2018-06-17T10:24:19.049Z,40.33
2018-06-17T10:25:19.074Z,39.94
2018-06-17T10:26:19.101Z,40.23
2018-06-17T10:27:19.126Z,39.94
2018-06-17T10:28:19.150Z,40.23
2018-06-17T10:29:19.202Z,40.81
2018-06-17T10:30:19.199Z,40.71
2018-06-17T10:31:19.230Z,40.23
2018-06-17T10:32:19.259Z,40.81
2018-06-17T10:33:19.277Z,40.61
2018-06-17T10:34:19.302Z,40.71
2018-06-17T10:35:19.330Z,40.52
2018-06-17T10:36:19.352Z,40.33
2018-06-17T10:37:19.379Z,40.13
2018-06-17T10:38:19.408Z,40.23
2018-06-17T10:39:19.429Z,40.13
2018-06-17T10:40:19.457Z,40.23
2018-06-17T10:41:19.483Z,40.33
2018-06-17T10:42:19.501Z,40.15
2018-06-17T10:43:19.536Z,40.23
2018-06-17T10:44:19.580Z,39.94
2018-06-17T10:45:19.580Z,40.05
2018-06-17T10:46:19.604Z,39.76
2018-06-17T10:47:19.630Z,39.95
2018-06-17T10:48:19.658Z,39.95
2018-06-17T10:49:19.682Z,40.05
2018-06-17T10:50:19.737Z,40.05
2018-06-17T10:51:19.732Z,39.86
2018-06-17T10:52:19.762Z,39.95
2018-06-17T10:53:19.784Z,39.86
2018-06-17T10:54:19.814Z,39.86
2018-06-17T10:55:19.837Z,39.86
2018-06-17T10:56:19.896Z,39.95
2018-06-17T10:57:19.884Z,40.25
2018-06-17T10:58:19.909Z,40.15
2018-06-17T10:59:19.937Z,39.47
2018-06-17T11:00:19.965Z,40.13
2018-06-17T11:01:19.987Z,40.15
2018-06-17T11:02:20.011Z,39.57
2018-06-17T11:03:20.043Z,39.37
2018-06-17T11:04:20.061Z,39.47
2018-06-17T11:05:20.174Z,40.15
2018-06-17T11:06:20.113Z,40.25
2018-06-17T11:07:20.138Z,39.67
2018-06-17T11:08:20.167Z,39.67
2018-06-17T11:09:20.197Z,39.47
2018-06-17T11:10:20.219Z,39.76
2018-06-17T11:11:20.241Z,39.47
2018-06-17T11:12:20.267Z,39.28
2018-06-17T11:13:20.359Z,39.28
2018-06-17T11:14:20.319Z,39.08
2018-06-17T11:15:20.344Z,39.18
2018-06-17T11:16:20.369Z,39.37
2018-06-17T11:17:20.397Z,39.18
2018-06-17T11:18:20.418Z,39.18
2018-06-17T11:19:20.445Z,39.28
2018-06-17T11:20:20.470Z,39.37
2018-06-17T11:21:20.495Z,39.47
2018-06-17T11:22:20.520Z,39.47
2018-06-17T11:23:20.546Z,39.47
2018-06-17T11:24:20.572Z,39.57
2018-06-17T11:25:20.602Z,39.18
2018-06-17T11:26:20.627Z,39.57
2018-06-17T11:27:20.648Z,39.57
2018-06-17T11:28:20.675Z,39.28
2018-06-17T11:29:20.701Z,39.37
2018-06-17T11:30:20.724Z,39.57
2018-06-17T11:31:20.750Z,39.57
2018-06-17T11:32:20.774Z,39.47
2018-06-17T11:33:20.805Z,39.47
2018-06-17T11:34:20.829Z,39.57
2018-06-17T11:35:20.853Z,39.57
2018-06-17T11:36:20.878Z,39.57
2018-06-17T11:37:20.905Z,39.57
2018-06-17T11:38:20.928Z,39.28
2018-06-17T11:39:20.955Z,39.37
2018-06-17T11:40:20.984Z,39.37
2018-06-17T11:41:21.010Z,39.57
2018-06-17T11:42:21.031Z,39.47
2018-06-17T11:43:21.060Z,39.57
2018-06-17T11:44:21.085Z,39.57
2018-06-17T11:45:21.108Z,39.47
2018-06-17T11:46:21.137Z,39.28
2018-06-17T11:47:21.157Z,39.47
2018-06-17T11:48:21.184Z,39.47
2018-06-17T11:49:21.212Z,39.47
2018-06-17T11:50:21.235Z,39.18
2018-06-17T11:51:21.267Z,39.55
2018-06-17T11:52:21.286Z,39.47
2018-06-17T11:53:21.313Z,39.37
2018-06-17T11:54:21.342Z,39.08
2018-06-17T11:55:21.361Z,39.37
2018-06-17T11:56:21.388Z,39.57
2018-06-17T11:57:21.417Z,39.28
2018-06-17T11:58:21.438Z,39.18
2018-06-17T11:59:21.464Z,39.18
2018-06-17T12:00:21.495Z,39.28
2018-06-17T12:01:21.517Z,39.26
2018-06-17T12:02:21.541Z,39.28
2018-06-17T12:03:21.565Z,39.16
2018-06-17T12:04:21.591Z,39.18
2018-06-17T12:05:21.617Z,39.36
2018-06-17T12:06:21.642Z,39.18
2018-06-17T12:07:21.668Z,39.08
2018-06-17T12:08:21.694Z,39.45
2018-06-17T12:09:21.719Z,39.18
2018-06-17T12:10:21.747Z,39.28
2018-06-17T12:11:21.770Z,39.18
2018-06-17T12:12:21.793Z,39.06
2018-06-17T12:13:21.820Z,39.18
2018-06-17T12:14:21.850Z,39.18
2018-06-17T12:15:21.871Z,39.45
2018-06-17T12:16:21.903Z,39.37
2018-06-17T12:17:21.924Z,39.28
2018-06-17T12:18:21.949Z,39.28
2018-06-17T12:19:21.974Z,38.99
2018-06-17T12:20:22.001Z,38.99
2018-06-17T12:21:22.025Z,38.99
2018-06-17T12:22:22.049Z,38.99
2018-06-17T12:23:22.078Z,39.28
2018-06-17T12:24:22.101Z,38.70
2018-06-17T12:25:22.158Z,39.28
2018-06-17T12:26:22.152Z,39.08
2018-06-17T12:27:22.178Z,38.99
2018-06-17T12:28:22.204Z,38.89
2018-06-17T12:29:22.226Z,38.99
2018-06-17T12:30:22.255Z,39.08
2018-06-17T12:31:22.281Z,38.89
2018-06-17T12:32:22.304Z,38.79
2018-06-17T12:33:22.331Z,38.70
2018-06-17T12:34:22.357Z,39.28
2018-06-17T12:35:22.382Z,39.28
2018-06-17T12:36:22.408Z,38.89
2018-06-17T12:37:22.434Z,38.70
2018-06-17T12:38:22.457Z,38.99
2018-06-17T12:39:22.482Z,38.99
2018-06-17T12:40:22.508Z,38.60
2018-06-17T12:41:22.535Z,38.60
2018-06-17T12:42:22.559Z,39.16
2018-06-17T12:43:22.585Z,39.08
2018-06-17T12:44:22.610Z,39.28
2018-06-17T12:45:22.639Z,38.78
2018-06-17T12:46:22.659Z,38.96
2018-06-17T12:47:22.687Z,39.45
2018-06-17T12:48:22.714Z,38.96
2018-06-17T12:49:22.739Z,39.26
2018-06-17T12:50:22.764Z,38.58
2018-06-17T12:51:22.789Z,39.26
2018-06-17T12:52:22.814Z,39.06